LSGS Airport Information

Runway Information
Runway 07 Length 0 ft width 0 ft
Elevation 1578 ft Threshold 0 ft Heading 0
Runway 25 Length 0 ft Width 0 ft
Elevation 1581 ft Threshold 0 ft Heading 0
Runway 07L Length 1820 ft width 98 ft
Elevation 1578 ft Threshold 0 ft Heading 73
Runway 25R Length 1820 ft Width 98 ft
Elevation 1581 ft Threshold 328 ft Heading 253
Runway 07R Length 6562 ft width 131 ft
Elevation 1580 ft Threshold 164 ft Heading 73
Runway 25L Length 6562 ft Width 131 ft
Elevation 1585 ft Threshold 164 ft Heading 253
Airport Frequencies
Type A/G Name SWISS MILI Frequency 134.275 MHZ
Type APP Name RADAR Frequency 126.825 MHZ
Type GND Name GND Frequency 121.7 MHZ
Type INFO Name INFO Frequency 122.35 MHZ
Type TWR Name TWR Frequency 118.275 MHZ
Airport Navaids
Type VOR-DME Name Montana Frequency 115850 KHZ
Type VOR-DME Name Sion Frequency 112150 KHZ
Airport Weather Information & NOTAM
ADDS - METARS form results

(0958 UTC 23 July 2018)
 
METAR text: LSGS 230950Z VRB03KT 9999 FEW070 SCT090 24/13 Q1017
Conditions at: LSGS (SION (MIL/CIV/AU, CH) observed 0950 UTC 23 July 2018
Temperature: 24.0°C (75°F)
Dewpoint: 13.0°C (55°F) [RH = 50%]
Pressure (altimeter): 30.03 inches Hg (1017.0 mb)
Winds: variable direction winds at 3 MPH (3 knots; 1.6 m/s)
Visibility: 6 or more miles (10+ km)
Ceiling: at least 12,000 feet AGL
Clouds: few clouds at 7000 feet AGL
scattered clouds at 9000 feet AGL
Weather: no significant weather observed at this time

METAR text: LSGS 230920Z 21003KT 130V270 9999 FEW070 SCT090 24/12 Q1017
Conditions at: LSGS (SION (MIL/CIV/AU, CH) observed 0920 UTC 23 July 2018
Temperature: 24.0°C (75°F)
Dewpoint: 12.0°C (54°F) [RH = 47%]
Pressure (altimeter): 30.03 inches Hg (1017.0 mb)
Winds: from the SSW (210 degrees) at 3 MPH (3 knots; 1.6 m/s)
Visibility: 6 or more miles (10+ km)
Ceiling: at least 12,000 feet AGL
Clouds: few clouds at 7000 feet AGL
scattered clouds at 9000 feet AGL
Weather: no significant weather observed at this time